Cooper, Texas
Current Conditions -  °F | °C
As of 4:55 AM on Saturday 25 Oct 2014 (Local Time) from KSLR Reporting Station
Clear Clear  
Wind Chill: 63°   Ceiling: Unl
Heat Index: 63°   Visibility: 10mi
Dew Point: 58°   Wind: 3mph
Humidity: 86%   Direction: 210°SSW
Pressure: 30.13"   Gusts: NA
Location:  33.37°N, 95.69°W
Report Text: KSLR 250955Z AUTO 21003KT 10SM CLR 17/15 A3013 RMK AO2 T01710147
Loading
Personal Weather Stations






























Interactive Weather Map
Tropical Storm Tracking
New forecast layout! Learn more

10-Day Weather Forecast

Advertisements
Track Severe Weather on mobile